aviador You're here:

PAIL Decoded Metar

ILIAMNA in AK, USA
Report Time2018-06-23 05:53:00
UTC Time2018-06-23 06:11:54
Flight Rules vfr VFR
Wind100° at 05 kt
W.Decomp.*RWY 07: 4.9 kt HW 1.1 kt RCW
RWY 17: 0.3 kt HW 5 kt LCW
W.Rank100° ranks 2
Current wind is below 100° avg. (12.3)
Visibility9999 m
Phenomena:N/A
Clouds:Few 044 Hf
Broken 070 Hf
Expected CloudBase > 1,600 ft AGL from Temp-Dew spread
Ceiling7,000 ft
Temp11°C (ISA -4)
Dew Point07°C (77% RH)
AAT8.5°C
QNH1020 hPa
Density Alt-377 ft
Elevation161 ft
Report Wrong Elevation
Raw Report
PAIL 230553Z AUTO 10005KT 10SM FEW044 BKN070 11/07 A3011 RMK AO2
SLP199 T01110067 10156 20111 51006 TSNO=

Extra information for PAIL:More info

Metar Taf Metar & Taf Last 4 Metars F.Rules Stats Wind Profile Meteogram Temp Stats Airport Information Weather charts Add Link Nearby VenuesMetar ALERT Operation Metar Decoded Social comments

AIRNAV info for PAIL